sensor_id;sensor_type;location;lat;lon;timestamp;P1;durP1;ratioP1;P2;durP2;ratioP2
17818;SDS011;9034;50.284;19.310;2023-05-27T00:00:57;11.50;;;5.15;;
17818;SDS011;9034;50.284;19.310;2023-05-27T00:01:59;8.63;;;5.25;;
17818;SDS011;9034;50.284;19.310;2023-05-27T00:03:02;11.77;;;4.63;;
17818;SDS011;9034;50.284;19.310;2023-05-27T00:04:04;12.70;;;5.15;;
17818;SDS011;9034;50.284;19.310;2023-05-27T00:05:07;9.15;;;4.95;;
17818;SDS011;9034;50.284;19.310;2023-05-27T00:06:10;10.90;;;5.35;;
17818;SDS011;9034;50.284;19.310;2023-05-27T00:07:13;10.60;;;5.43;;
17818;SDS011;9034;50.284;19.310;2023-05-27T00:08:15;10.25;;;5.05;;
17818;SDS011;9034;50.284;19.310;2023-05-27T00:09:18;8.93;;;4.72;;
17818;SDS011;9034;50.284;19.310;2023-05-27T00:10:20;9.80;;;5.20;;
17818;SDS011;9034;50.284;19.310;2023-05-27T00:11:24;10.60;;;5.22;;
17818;SDS011;9034;50.284;19.310;2023-05-27T00:12:26;8.82;;;4.57;;
17818;SDS011;9034;50.284;19.310;2023-05-27T00:13:29;12.38;;;5.38;;
17818;SDS011;9034;50.284;19.310;2023-05-27T00:14:31;10.80;;;5.35;;
17818;SDS011;9034;50.284;19.310;2023-05-27T00:15:37;9.73;;;5.10;;
17818;SDS011;9034;50.284;19.310;2023-05-27T00:16:40;10.68;;;4.22;;
17818;SDS011;9034;50.284;19.310;2023-05-27T00:17:42;8.88;;;4.78;;
17818;SDS011;9034;50.284;19.310;2023-05-27T00:18:45;10.65;;;4.82;;
17818;SDS011;9034;50.284;19.310;2023-05-27T00:19:50;9.60;;;4.85;;
17818;SDS011;9034;50.284;19.310;2023-05-27T00:20:53;7.03;;;4.57;;
17818;SDS011;9034;50.284;19.310;2023-05-27T00:21:56;11.43;;;5.22;;
17818;SDS011;9034;50.284;19.310;2023-05-27T00:22:58;13.10;;;5.70;;
17818;SDS011;9034;50.284;19.310;2023-05-27T00:24:01;11.50;;;5.00;;
17818;SDS011;9034;50.284;19.310;2023-05-27T00:25:03;11.70;;;4.63;;
17818;SDS011;9034;50.284;19.310;2023-05-27T00:26:07;11.15;;;5.32;;
17818;SDS011;9034;50.284;19.310;2023-05-27T00:27:09;10.88;;;5.00;;
17818;SDS011;9034;50.284;19.310;2023-05-27T00:28:12;15.43;;;5.07;;
17818;SDS011;9034;50.284;19.310;2023-05-27T00:29:15;13.15;;;5.03;;
17818;SDS011;9034;50.284;19.310;2023-05-27T00:30:18;15.25;;;5.28;;
17818;SDS011;9034;50.284;19.310;2023-05-27T00:31:22;11.45;;;5.38;;
17818;SDS011;9034;50.284;19.310;2023-05-27T00:32:26;10.98;;;4.95;;
17818;SDS011;9034;50.284;19.310;2023-05-27T00:33:28;10.05;;;4.50;;
17818;SDS011;9034;50.284;19.310;2023-05-27T00:34:31;8.40;;;5.03;;
17818;SDS011;9034;50.284;19.310;2023-05-27T00:35:34;16.98;;;5.35;;
17818;SDS011;9034;50.284;19.310;2023-05-27T00:36:37;11.15;;;5.45;;
17818;SDS011;9034;50.284;19.310;2023-05-27T00:37:39;11.15;;;4.93;;
17818;SDS011;9034;50.284;19.310;2023-05-27T00:38:43;10.82;;;5.18;;
17818;SDS011;9034;50.284;19.310;2023-05-27T00:39:45;10.55;;;5.38;;
17818;SDS011;9034;50.284;19.310;2023-05-27T00:40:47;14.38;;;5.63;;
17818;SDS011;9034;50.284;19.310;2023-05-27T00:41:52;13.75;;;5.78;;
17818;SDS011;9034;50.284;19.310;2023-05-27T00:42:54;12.07;;;6.07;;
17818;SDS011;9034;50.284;19.310;2023-05-27T00:43:57;13.55;;;5.72;;
17818;SDS011;9034;50.284;19.310;2023-05-27T00:44:59;17.27;;;6.10;;
17818;SDS011;9034;50.284;19.310;2023-05-27T00:46:02;14.93;;;5.25;;
17818;SDS011;9034;50.284;19.310;2023-05-27T00:47:05;13.93;;;5.32;;
17818;SDS011;9034;50.284;19.310;2023-05-27T00:48:09;16.30;;;6.00;;
17818;SDS011;9034;50.284;19.310;2023-05-27T00:49:11;16.98;;;6.07;;
17818;SDS011;9034;50.284;19.310;2023-05-27T00:50:14;12.55;;;6.32;;
17818;SDS011;9034;50.284;19.310;2023-05-27T00:51:19;14.90;;;5.60;;
17818;SDS011;9034;50.284;19.310;2023-05-27T00:52:22;12.10;;;5.68;;
17818;SDS011;9034;50.284;19.310;2023-05-27T00:53:24;12.25;;;5.65;;
17818;SDS011;9034;50.284;19.310;2023-05-27T00:54:29;14.77;;;5.85;;
17818;SDS011;9034;50.284;19.310;2023-05-27T00:55:33;19.38;;;6.32;;
17818;SDS011;9034;50.284;19.310;2023-05-27T00:56:36;12.18;;;5.82;;
17818;SDS011;9034;50.284;19.310;2023-05-27T00:57:38;14.13;;;5.93;;
17818;SDS011;9034;50.284;19.310;2023-05-27T00:58:41;12.63;;;5.85;;
17818;SDS011;9034;50.284;19.310;2023-05-27T00:59:43;18.67;;;6.50;;
17818;SDS011;9034;50.284;19.310;2023-05-27T01:00:46;16.33;;;5.68;;
17818;SDS011;9034;50.284;19.310;2023-05-27T01:01:49;15.10;;;6.03;;
17818;SDS011;9034;50.284;19.310;2023-05-27T01:02:53;14.73;;;7.05;;
17818;SDS011;9034;50.284;19.310;2023-05-27T01:03:55;15.38;;;6.22;;
17818;SDS011;9034;50.284;19.310;2023-05-27T01:04:59;14.40;;;6.10;;
17818;SDS011;9034;50.284;19.310;2023-05-27T01:06:03;18.55;;;6.68;;
17818;SDS011;9034;50.284;19.310;2023-05-27T01:07:14;13.20;;;6.40;;
17818;SDS011;9034;50.284;19.310;2023-05-27T01:08:23;14.32;;;5.82;;
17818;SDS011;9034;50.284;19.310;2023-05-27T01:09:38;12.02;;;5.43;;
17818;SDS011;9034;50.284;19.310;2023-05-27T01:10:43;15.88;;;6.20;;
17818;SDS011;9034;50.284;19.310;2023-05-27T01:11:57;13.45;;;6.38;;
17818;SDS011;9034;50.284;19.310;2023-05-27T01:13:03;16.60;;;5.90;;
17818;SDS011;9034;50.284;19.310;2023-05-27T01:14:13;13.68;;;5.80;;
17818;SDS011;9034;50.284;19.310;2023-05-27T01:15:16;15.32;;;6.38;;
17818;SDS011;9034;50.284;19.310;2023-05-27T01:16:19;13.40;;;6.22;;
17818;SDS011;9034;50.284;19.310;2023-05-27T01:17:21;18.23;;;6.68;;
17818;SDS011;9034;50.284;19.310;2023-05-27T01:18:28;17.52;;;6.07;;
17818;SDS011;9034;50.284;19.310;2023-05-27T01:19:33;11.40;;;5.55;;
17818;SDS011;9034;50.284;19.310;2023-05-27T01:20:37;16.30;;;6.32;;
17818;SDS011;9034;50.284;19.310;2023-05-27T01:21:43;17.38;;;7.55;;
17818;SDS011;9034;50.284;19.310;2023-05-27T01:22:48;12.93;;;6.05;;
17818;SDS011;9034;50.284;19.310;2023-05-27T01:23:53;17.25;;;7.38;;
17818;SDS011;9034;50.284;19.310;2023-05-27T01:24:56;15.15;;;6.05;;
17818;SDS011;9034;50.284;19.310;2023-05-27T01:25:58;17.05;;;6.70;;
17818;SDS011;9034;50.284;19.310;2023-05-27T01:27:02;13.32;;;6.95;;
17818;SDS011;9034;50.284;19.310;2023-05-27T01:28:04;17.80;;;6.82;;
17818;SDS011;9034;50.284;19.310;2023-05-27T01:29:07;14.35;;;6.50;;
17818;SDS011;9034;50.284;19.310;2023-05-27T01:30:09;14.15;;;6.63;;
17818;SDS011;9034;50.284;19.310;2023-05-27T01:31:13;14.55;;;5.97;;
17818;SDS011;9034;50.284;19.310;2023-05-27T01:32:18;17.08;;;6.53;;
17818;SDS011;9034;50.284;19.310;2023-05-27T01:33:25;15.05;;;6.80;;
17818;SDS011;9034;50.284;19.310;2023-05-27T01:34:28;14.23;;;6.43;;
17818;SDS011;9034;50.284;19.310;2023-05-27T01:35:39;13.85;;;6.15;;
17818;SDS011;9034;50.284;19.310;2023-05-27T01:36:43;15.35;;;6.90;;
17818;SDS011;9034;50.284;19.310;2023-05-27T01:37:51;16.83;;;7.20;;
17818;SDS011;9034;50.284;19.310;2023-05-27T01:38:55;13.45;;;6.63;;
17818;SDS011;9034;50.284;19.310;2023-05-27T01:39:59;16.40;;;5.53;;
17818;SDS011;9034;50.284;19.310;2023-05-27T01:41:03;19.35;;;6.15;;
17818;SDS011;9034;50.284;19.310;2023-05-27T01:42:06;10.77;;;5.38;;
17818;SDS011;9034;50.284;19.310;2023-05-27T01:43:09;19.70;;;7.13;;
17818;SDS011;9034;50.284;19.310;2023-05-27T01:44:14;15.93;;;6.68;;
17818;SDS011;9034;50.284;19.310;2023-05-27T01:45:18;17.63;;;6.75;;
17818;SDS011;9034;50.284;19.310;2023-05-27T01:46:21;18.13;;;5.68;;
17818;SDS011;9034;50.284;19.310;2023-05-27T01:47:23;15.73;;;6.15;;
17818;SDS011;9034;50.284;19.310;2023-05-27T01:48:26;18.73;;;5.68;;
17818;SDS011;9034;50.284;19.310;2023-05-27T01:49:29;17.88;;;5.55;;
17818;SDS011;9034;50.284;19.310;2023-05-27T01:50:32;19.65;;;7.25;;
17818;SDS011;9034;50.284;19.310;2023-05-27T01:51:34;14.50;;;6.00;;
17818;SDS011;9034;50.284;19.310;2023-05-27T01:52:37;14.63;;;6.18;;
17818;SDS011;9034;50.284;19.310;2023-05-27T01:53:41;16.30;;;5.90;;
17818;SDS011;9034;50.284;19.310;2023-05-27T01:54:43;10.90;;;5.05;;
17818;SDS011;9034;50.284;19.310;2023-05-27T01:57:30;13.98;;;5.57;;
17818;SDS011;9034;50.284;19.310;2023-05-27T01:58:33;10.02;;;5.35;;
17818;SDS011;9034;50.284;19.310;2023-05-27T01:59:35;15.93;;;5.88;;
17818;SDS011;9034;50.284;19.310;2023-05-27T02:00:38;9.75;;;5.10;;
17818;SDS011;9034;50.284;19.310;2023-05-27T02:01:40;12.43;;;5.20;;
17818;SDS011;9034;50.284;19.310;2023-05-27T02:02:43;12.40;;;6.07;;
17818;SDS011;9034;50.284;19.310;2023-05-27T02:03:48;11.77;;;5.22;;
17818;SDS011;9034;50.284;19.310;2023-05-27T02:04:51;14.85;;;6.10;;
17818;SDS011;9034;50.284;19.310;2023-05-27T02:05:54;14.52;;;6.90;;
17818;SDS011;9034;50.284;19.310;2023-05-27T02:06:58;20.50;;;6.75;;
17818;SDS011;9034;50.284;19.310;2023-05-27T02:08:00;20.83;;;6.85;;
17818;SDS011;9034;50.284;19.310;2023-05-27T02:09:04;12.90;;;5.88;;
17818;SDS011;9034;50.284;19.310;2023-05-27T02:10:06;21.17;;;7.22;;
17818;SDS011;9034;50.284;19.310;2023-05-27T02:11:10;17.80;;;6.93;;
17818;SDS011;9034;50.284;19.310;2023-05-27T02:12:12;13.27;;;6.03;;
17818;SDS011;9034;50.284;19.310;2023-05-27T02:13:14;16.70;;;7.20;;
17818;SDS011;9034;50.284;19.310;2023-05-27T02:14:16;15.27;;;5.55;;
17818;SDS011;9034;50.284;19.310;2023-05-27T02:15:20;16.05;;;6.03;;
17818;SDS011;9034;50.284;19.310;2023-05-27T02:16:25;13.80;;;6.95;;
17818;SDS011;9034;50.284;19.310;2023-05-27T02:17:29;12.70;;;5.80;;
17818;SDS011;9034;50.284;19.310;2023-05-27T02:18:31;11.63;;;5.78;;
17818;SDS011;9034;50.284;19.310;2023-05-27T02:19:34;14.52;;;5.53;;
17818;SDS011;9034;50.284;19.310;2023-05-27T02:20:41;19.15;;;6.40;;
17818;SDS011;9034;50.284;19.310;2023-05-27T02:21:44;12.40;;;5.57;;
17818;SDS011;9034;50.284;19.310;2023-05-27T02:22:46;13.80;;;5.40;;
17818;SDS011;9034;50.284;19.310;2023-05-27T02:23:49;15.30;;;5.13;;
17818;SDS011;9034;50.284;19.310;2023-05-27T02:24:53;11.65;;;6.15;;
17818;SDS011;9034;50.284;19.310;2023-05-27T02:25:55;12.25;;;5.88;;
17818;SDS011;9034;50.284;19.310;2023-05-27T02:26:58;14.07;;;5.55;;
17818;SDS011;9034;50.284;19.310;2023-05-27T02:28:01;11.43;;;5.25;;
17818;SDS011;9034;50.284;19.310;2023-05-27T02:29:04;12.98;;;5.50;;
17818;SDS011;9034;50.284;19.310;2023-05-27T02:30:07;13.27;;;4.93;;
17818;SDS011;9034;50.284;19.310;2023-05-27T02:31:10;15.95;;;6.00;;
17818;SDS011;9034;50.284;19.310;2023-05-27T02:32:13;16.73;;;6.00;;
17818;SDS011;9034;50.284;19.310;2023-05-27T02:33:17;15.85;;;5.93;;
17818;SDS011;9034;50.284;19.310;2023-05-27T02:34:20;16.80;;;5.88;;
17818;SDS011;9034;50.284;19.310;2023-05-27T02:35:24;12.65;;;5.57;;
17818;SDS011;9034;50.284;19.310;2023-05-27T02:36:27;14.88;;;5.63;;
17818;SDS011;9034;50.284;19.310;2023-05-27T02:37:29;14.80;;;6.50;;
17818;SDS011;9034;50.284;19.310;2023-05-27T02:38:33;14.43;;;5.70;;
17818;SDS011;9034;50.284;19.310;2023-05-27T02:39:35;10.88;;;6.10;;
17818;SDS011;9034;50.284;19.310;2023-05-27T02:40:39;12.80;;;5.80;;
17818;SDS011;9034;50.284;19.310;2023-05-27T02:41:41;17.58;;;5.60;;
17818;SDS011;9034;50.284;19.310;2023-05-27T02:42:44;13.93;;;6.47;;
17818;SDS011;9034;50.284;19.310;2023-05-27T02:43:46;12.82;;;5.70;;
17818;SDS011;9034;50.284;19.310;2023-05-27T02:44:49;12.32;;;5.47;;
17818;SDS011;9034;50.284;19.310;2023-05-27T02:45:51;11.48;;;5.75;;
17818;SDS011;9034;50.284;19.310;2023-05-27T02:46:54;20.45;;;6.43;;
17818;SDS011;9034;50.284;19.310;2023-05-27T02:47:57;10.55;;;6.05;;
17818;SDS011;9034;50.284;19.310;2023-05-27T02:49:03;14.00;;;6.25;;
17818;SDS011;9034;50.284;19.310;2023-05-27T02:50:06;16.60;;;6.40;;
17818;SDS011;9034;50.284;19.310;2023-05-27T02:51:08;15.32;;;6.28;;
17818;SDS011;9034;50.284;19.310;2023-05-27T02:52:11;12.63;;;5.45;;
17818;SDS011;9034;50.284;19.310;2023-05-27T02:53:13;13.05;;;6.40;;
17818;SDS011;9034;50.284;19.310;2023-05-27T02:54:17;16.77;;;6.55;;
17818;SDS011;9034;50.284;19.310;2023-05-27T02:55:19;12.68;;;5.95;;
17818;SDS011;9034;50.284;19.310;2023-05-27T02:56:24;11.52;;;6.05;;
17818;SDS011;9034;50.284;19.310;2023-05-27T02:57:27;10.93;;;5.32;;
17818;SDS011;9034;50.284;19.310;2023-05-27T02:58:30;11.27;;;5.97;;
17818;SDS011;9034;50.284;19.310;2023-05-27T02:59:32;13.75;;;5.95;;
17818;SDS011;9034;50.284;19.310;2023-05-27T03:00:35;14.70;;;6.38;;
17818;SDS011;9034;50.284;19.310;2023-05-27T03:01:37;15.07;;;6.55;;
17818;SDS011;9034;50.284;19.310;2023-05-27T03:02:40;16.35;;;6.68;;
17818;SDS011;9034;50.284;19.310;2023-05-27T03:03:42;13.93;;;5.80;;
17818;SDS011;9034;50.284;19.310;2023-05-27T03:04:47;13.63;;;6.22;;
17818;SDS011;9034;50.284;19.310;2023-05-27T03:05:49;11.93;;;6.28;;
17818;SDS011;9034;50.284;19.310;2023-05-27T03:06:53;12.10;;;5.15;;
17818;SDS011;9034;50.284;19.310;2023-05-27T03:07:55;12.52;;;6.43;;
17818;SDS011;9034;50.284;19.310;2023-05-27T03:08:58;15.63;;;6.90;;
17818;SDS011;9034;50.284;19.310;2023-05-27T03:10:01;12.35;;;5.95;;
17818;SDS011;9034;50.284;19.310;2023-05-27T03:11:05;19.08;;;7.53;;
17818;SDS011;9034;50.284;19.310;2023-05-27T03:12:08;14.52;;;7.20;;
17818;SDS011;9034;50.284;19.310;2023-05-27T03:13:11;10.55;;;6.40;;
17818;SDS011;9034;50.284;19.310;2023-05-27T03:14:13;15.43;;;6.50;;
17818;SDS011;9034;50.284;19.310;2023-05-27T03:15:16;13.05;;;7.00;;
17818;SDS011;9034;50.284;19.310;2023-05-27T03:16:18;13.77;;;6.88;;
17818;SDS011;9034;50.284;19.310;2023-05-27T03:17:21;13.95;;;6.53;;
17818;SDS011;9034;50.284;19.310;2023-05-27T03:18:23;16.25;;;6.68;;
17818;SDS011;9034;50.284;19.310;2023-05-27T03:19:26;15.10;;;6.53;;
17818;SDS011;9034;50.284;19.310;2023-05-27T03:20:28;20.45;;;6.95;;
17818;SDS011;9034;50.284;19.310;2023-05-27T03:21:31;16.15;;;6.35;;
17818;SDS011;9034;50.284;19.310;2023-05-27T03:22:33;16.20;;;6.40;;
17818;SDS011;9034;50.284;19.310;2023-05-27T03:23:36;17.95;;;6.80;;
17818;SDS011;9034;50.284;19.310;2023-05-27T03:24:38;14.70;;;5.88;;
17818;SDS011;9034;50.284;19.310;2023-05-27T03:25:41;15.73;;;6.60;;
17818;SDS011;9034;50.284;19.310;2023-05-27T03:26:43;16.85;;;6.53;;
17818;SDS011;9034;50.284;19.310;2023-05-27T03:27:48;12.10;;;5.85;;
17818;SDS011;9034;50.284;19.310;2023-05-27T03:28:51;11.75;;;6.18;;
17818;SDS011;9034;50.284;19.310;2023-05-27T03:29:54;12.55;;;6.20;;
17818;SDS011;9034;50.284;19.310;2023-05-27T03:30:56;12.80;;;6.15;;
17818;SDS011;9034;50.284;19.310;2023-05-27T03:32:12;12.68;;;6.47;;
17818;SDS011;9034;50.284;19.310;2023-05-27T03:33:17;13.30;;;6.30;;
17818;SDS011;9034;50.284;19.310;2023-05-27T03:34:19;16.73;;;6.13;;
17818;SDS011;9034;50.284;19.310;2023-05-27T03:35:22;11.73;;;6.82;;
17818;SDS011;9034;50.284;19.310;2023-05-27T03:36:24;13.32;;;6.90;;
17818;SDS011;9034;50.284;19.310;2023-05-27T03:37:27;11.85;;;5.97;;
17818;SDS011;9034;50.284;19.310;2023-05-27T03:38:35;10.93;;;6.63;;
17818;SDS011;9034;50.284;19.310;2023-05-27T03:39:37;11.07;;;6.32;;
17818;SDS011;9034;50.284;19.310;2023-05-27T03:40:39;10.70;;;5.93;;
17818;SDS011;9034;50.284;19.310;2023-05-27T03:41:43;11.13;;;6.10;;
17818;SDS011;9034;50.284;19.310;2023-05-27T03:42:48;11.85;;;6.32;;
17818;SDS011;9034;50.284;19.310;2023-05-27T03:43:55;10.27;;;5.95;;
17818;SDS011;9034;50.284;19.310;2023-05-27T03:44:57;10.00;;;5.75;;
17818;SDS011;9034;50.284;19.310;2023-05-27T03:46:01;10.10;;;6.13;;
17818;SDS011;9034;50.284;19.310;2023-05-27T03:47:04;12.82;;;6.95;;
17818;SDS011;9034;50.284;19.310;2023-05-27T03:48:08;11.23;;;6.70;;
17818;SDS011;9034;50.284;19.310;2023-05-27T03:49:11;17.73;;;6.80;;
17818;SDS011;9034;50.284;19.310;2023-05-27T03:50:14;10.75;;;6.38;;
17818;SDS011;9034;50.284;19.310;2023-05-27T03:51:17;15.88;;;8.10;;
17818;SDS011;9034;50.284;19.310;2023-05-27T03:52:21;19.30;;;8.15;;
17818;SDS011;9034;50.284;19.310;2023-05-27T03:53:23;13.50;;;7.53;;
17818;SDS011;9034;50.284;19.310;2023-05-27T03:54:26;11.10;;;7.18;;
17818;SDS011;9034;50.284;19.310;2023-05-27T03:55:27;14.52;;;7.20;;
17818;SDS011;9034;50.284;19.310;2023-05-27T03:56:30;14.57;;;7.45;;
17818;SDS011;9034;50.284;19.310;2023-05-27T03:57:32;9.63;;;6.47;;
17818;SDS011;9034;50.284;19.310;2023-05-27T03:58:36;13.30;;;7.22;;
17818;SDS011;9034;50.284;19.310;2023-05-27T03:59:38;10.95;;;6.45;;
17818;SDS011;9034;50.284;19.310;2023-05-27T04:00:41;13.90;;;6.95;;
17818;SDS011;9034;50.284;19.310;2023-05-27T04:01:43;15.15;;;7.30;;
17818;SDS011;9034;50.284;19.310;2023-05-27T04:02:46;15.25;;;7.25;;
17818;SDS011;9034;50.284;19.310;2023-05-27T04:03:49;11.15;;;7.05;;
17818;SDS011;9034;50.284;19.310;2023-05-27T04:04:53;14.98;;;7.00;;
17818;SDS011;9034;50.284;19.310;2023-05-27T04:05:54;15.65;;;7.30;;
17818;SDS011;9034;50.284;19.310;2023-05-27T04:06:59;10.65;;;6.93;;
17818;SDS011;9034;50.284;19.310;2023-05-27T04:08:01;11.52;;;6.45;;
17818;SDS011;9034;50.284;19.310;2023-05-27T04:09:04;11.43;;;6.75;;
17818;SDS011;9034;50.284;19.310;2023-05-27T04:10:06;9.70;;;5.78;;
17818;SDS011;9034;50.284;19.310;2023-05-27T04:11:10;12.70;;;6.60;;
17818;SDS011;9034;50.284;19.310;2023-05-27T04:12:13;11.23;;;6.47;;
17818;SDS011;9034;50.284;19.310;2023-05-27T04:13:16;20.98;;;7.07;;
17818;SDS011;9034;50.284;19.310;2023-05-27T04:14:19;14.80;;;6.85;;
17818;SDS011;9034;50.284;19.310;2023-05-27T04:15:22;15.57;;;6.63;;
17818;SDS011;9034;50.284;19.310;2023-05-27T04:16:25;12.23;;;6.07;;
17818;SDS011;9034;50.284;19.310;2023-05-27T04:17:29;21.13;;;6.10;;
17818;SDS011;9034;50.284;19.310;2023-05-27T04:18:31;10.70;;;5.28;;
17818;SDS011;9034;50.284;19.310;2023-05-27T04:19:34;15.13;;;6.45;;
17818;SDS011;9034;50.284;19.310;2023-05-27T04:20:37;10.88;;;5.53;;
17818;SDS011;9034;50.284;19.310;2023-05-27T04:21:41;14.40;;;5.65;;
17818;SDS011;9034;50.284;19.310;2023-05-27T04:22:43;12.20;;;6.13;;
17818;SDS011;9034;50.284;19.310;2023-05-27T04:23:47;13.15;;;5.80;;
17818;SDS011;9034;50.284;19.310;2023-05-27T04:24:49;11.50;;;6.18;;
17818;SDS011;9034;50.284;19.310;2023-05-27T04:25:53;14.95;;;5.60;;
17818;SDS011;9034;50.284;19.310;2023-05-27T04:26:58;15.30;;;5.60;;
17818;SDS011;9034;50.284;19.310;2023-05-27T04:28:02;13.98;;;5.97;;
17818;SDS011;9034;50.284;19.310;2023-05-27T04:29:06;11.00;;;5.03;;
17818;SDS011;9034;50.284;19.310;2023-05-27T04:30:13;16.77;;;5.50;;
17818;SDS011;9034;50.284;19.310;2023-05-27T04:31:15;12.80;;;4.63;;
17818;SDS011;9034;50.284;19.310;2023-05-27T04:32:24;10.90;;;4.97;;
17818;SDS011;9034;50.284;19.310;2023-05-27T04:33:28;20.10;;;4.93;;
17818;SDS011;9034;50.284;19.310;2023-05-27T04:34:33;14.63;;;5.38;;
17818;SDS011;9034;50.284;19.310;2023-05-27T04:35:36;14.10;;;4.88;;
17818;SDS011;9034;50.284;19.310;2023-05-27T04:36:42;13.23;;;4.78;;
17818;SDS011;9034;50.284;19.310;2023-05-27T04:37:47;10.38;;;4.72;;
17818;SDS011;9034;50.284;19.310;2023-05-27T04:38:51;12.88;;;5.43;;
17818;SDS011;9034;50.284;19.310;2023-05-27T04:39:54;12.88;;;5.20;;
17818;SDS011;9034;50.284;19.310;2023-05-27T04:40:58;10.57;;;4.80;;
17818;SDS011;9034;50.284;19.310;2023-05-27T04:42:19;13.93;;;4.55;;
17818;SDS011;9034;50.284;19.310;2023-05-27T04:43:25;14.00;;;5.13;;
17818;SDS011;9034;50.284;19.310;2023-05-27T04:44:28;12.77;;;4.97;;
17818;SDS011;9034;50.284;19.310;2023-05-27T04:45:35;12.60;;;4.22;;
17818;SDS011;9034;50.284;19.310;2023-05-27T04:46:37;13.02;;;4.05;;
17818;SDS011;9034;50.284;19.310;2023-05-27T04:47:40;12.18;;;5.18;;
17818;SDS011;9034;50.284;19.310;2023-05-27T04:48:42;9.80;;;4.88;;
17818;SDS011;9034;50.284;19.310;2023-05-27T04:49:47;11.48;;;5.00;;
17818;SDS011;9034;50.284;19.310;2023-05-27T04:50:49;12.38;;;5.00;;
17818;SDS011;9034;50.284;19.310;2023-05-27T04:51:55;8.43;;;4.38;;
17818;SDS011;9034;50.284;19.310;2023-05-27T04:52:57;9.52;;;4.75;;
17818;SDS011;9034;50.284;19.310;2023-05-27T04:54:02;13.50;;;4.93;;
17818;SDS011;9034;50.284;19.310;2023-05-27T04:55:04;9.55;;;4.35;;
17818;SDS011;9034;50.284;19.310;2023-05-27T04:56:13;8.95;;;5.03;;
17818;SDS011;9034;50.284;19.310;2023-05-27T04:57:16;12.48;;;4.50;;
17818;SDS011;9034;50.284;19.310;2023-05-27T04:58:20;11.38;;;4.43;;
17818;SDS011;9034;50.284;19.310;2023-05-27T04:59:23;11.68;;;4.45;;
17818;SDS011;9034;50.284;19.310;2023-05-27T05:00:38;11.82;;;5.15;;
17818;SDS011;9034;50.284;19.310;2023-05-27T05:01:52;10.55;;;4.40;;
17818;SDS011;9034;50.284;19.310;2023-05-27T05:03:24;13.15;;;4.15;;
17818;SDS011;9034;50.284;19.310;2023-05-27T05:04:39;9.30;;;4.15;;
17818;SDS011;9034;50.284;19.310;2023-05-27T05:05:42;11.13;;;4.30;;
17818;SDS011;9034;50.284;19.310;2023-05-27T05:06:44;10.77;;;4.88;;
17818;SDS011;9034;50.284;19.310;2023-05-27T05:07:49;10.07;;;4.18;;
17818;SDS011;9034;50.284;19.310;2023-05-27T05:08:51;13.98;;;4.60;;
17818;SDS011;9034;50.284;19.310;2023-05-27T05:09:54;15.25;;;4.22;;
17818;SDS011;9034;50.284;19.310;2023-05-27T05:11:03;12.98;;;4.72;;
17818;SDS011;9034;50.284;19.310;2023-05-27T05:12:06;10.48;;;4.43;;
17818;SDS011;9034;50.284;19.310;2023-05-27T05:13:12;12.43;;;4.43;;
17818;SDS011;9034;50.284;19.310;2023-05-27T05:14:16;9.40;;;4.47;;
17818;SDS011;9034;50.284;19.310;2023-05-27T05:15:19;10.32;;;5.07;;
17818;SDS011;9034;50.284;19.310;2023-05-27T05:16:24;11.68;;;4.68;;
17818;SDS011;9034;50.284;19.310;2023-05-27T05:17:26;10.18;;;4.35;;
17818;SDS011;9034;50.284;19.310;2023-05-27T05:18:30;10.93;;;4.28;;
17818;SDS011;9034;50.284;19.310;2023-05-27T05:19:32;11.02;;;4.43;;
17818;SDS011;9034;50.284;19.310;2023-05-27T05:20:35;12.90;;;4.40;;
17818;SDS011;9034;50.284;19.310;2023-05-27T05:21:39;9.30;;;3.60;;
17818;SDS011;9034;50.284;19.310;2023-05-27T05:22:44;10.15;;;4.45;;
17818;SDS011;9034;50.284;19.310;2023-05-27T05:23:47;11.13;;;4.53;;
17818;SDS011;9034;50.284;19.310;2023-05-27T05:24:49;9.90;;;4.10;;
17818;SDS011;9034;50.284;19.310;2023-05-27T05:26:00;9.98;;;4.28;;
17818;SDS011;9034;50.284;19.310;2023-05-27T05:27:09;8.45;;;4.20;;
17818;SDS011;9034;50.284;19.310;2023-05-27T05:28:12;7.22;;;3.58;;
17818;SDS011;9034;50.284;19.310;2023-05-27T05:29:14;11.13;;;4.38;;
17818;SDS011;9034;50.284;19.310;2023-05-27T05:30:17;10.73;;;4.20;;
17818;SDS011;9034;50.284;19.310;2023-05-27T05:31:20;11.38;;;4.78;;
17818;SDS011;9034;50.284;19.310;2023-05-27T05:32:25;11.00;;;3.88;;
17818;SDS011;9034;50.284;19.310;2023-05-27T05:33:28;13.07;;;4.20;;
17818;SDS011;9034;50.284;19.310;2023-05-27T05:34:31;11.73;;;4.50;;
17818;SDS011;9034;50.284;19.310;2023-05-27T05:35:35;9.00;;;4.50;;
17818;SDS011;9034;50.284;19.310;2023-05-27T05:36:52;11.30;;;3.90;;
17818;SDS011;9034;50.284;19.310;2023-05-27T05:37:54;10.70;;;3.75;;
17818;SDS011;9034;50.284;19.310;2023-05-27T05:38:57;10.82;;;4.03;;
17818;SDS011;9034;50.284;19.310;2023-05-27T05:40:00;12.95;;;4.47;;
17818;SDS011;9034;50.284;19.310;2023-05-27T05:41:05;9.60;;;4.28;;
17818;SDS011;9034;50.284;19.310;2023-05-27T05:42:10;8.77;;;3.67;;
17818;SDS011;9034;50.284;19.310;2023-05-27T05:43:13;11.35;;;4.45;;
17818;SDS011;9034;50.284;19.310;2023-05-27T05:44:15;10.18;;;3.78;;
17818;SDS011;9034;50.284;19.310;2023-05-27T05:45:18;7.75;;;4.15;;
17818;SDS011;9034;50.284;19.310;2023-05-27T05:46:21;11.38;;;4.07;;
17818;SDS011;9034;50.284;19.310;2023-05-27T05:47:26;10.02;;;3.83;;
17818;SDS011;9034;50.284;19.310;2023-05-27T05:48:38;11.00;;;4.33;;
17818;SDS011;9034;50.284;19.310;2023-05-27T05:49:44;7.30;;;3.30;;
17818;SDS011;9034;50.284;19.310;2023-05-27T05:50:47;11.70;;;4.27;;
17818;SDS011;9034;50.284;19.310;2023-05-27T05:51:50;11.03;;;4.27;;
17818;SDS011;9034;50.284;19.310;2023-05-27T05:52:53;11.27;;;4.18;;
17818;SDS011;9034;50.284;19.310;2023-05-27T05:53:56;8.20;;;4.03;;
17818;SDS011;9034;50.284;19.310;2023-05-27T05:54:58;10.37;;;4.10;;
17818;SDS011;9034;50.284;19.310;2023-05-27T05:56:02;12.43;;;4.23;;
17818;SDS011;9034;50.284;19.310;2023-05-27T05:57:04;9.13;;;4.17;;
17818;SDS011;9034;50.284;19.310;2023-05-27T05:58:07;9.43;;;3.93;;
17818;SDS011;9034;50.284;19.310;2023-05-27T05:59:09;9.90;;;3.67;;
17818;SDS011;9034;50.284;19.310;2023-05-27T06:00:12;10.13;;;4.30;;
17818;SDS011;9034;50.284;19.310;2023-05-27T06:01:18;8.67;;;3.67;;
17818;SDS011;9034;50.284;19.310;2023-05-27T06:02:21;8.73;;;3.80;;
17818;SDS011;9034;50.284;19.310;2023-05-27T06:03:25;10.60;;;4.03;;
17818;SDS011;9034;50.284;19.310;2023-05-27T06:04:30;5.53;;;3.40;;
17818;SDS011;9034;50.284;19.310;2023-05-27T06:05:32;10.50;;;3.67;;
17818;SDS011;9034;50.284;19.310;2023-05-27T06:06:36;9.73;;;4.00;;
17818;SDS011;9034;50.284;19.310;2023-05-27T06:07:53;13.57;;;4.23;;
17818;SDS011;9034;50.284;19.310;2023-05-27T06:08:56;11.13;;;3.70;;
17818;SDS011;9034;50.284;19.310;2023-05-27T06:09:58;9.27;;;3.97;;
17818;SDS011;9034;50.284;19.310;2023-05-27T06:11:09;8.27;;;4.30;;
17818;SDS011;9034;50.284;19.310;2023-05-27T06:12:13;7.57;;;4.53;;
17818;SDS011;9034;50.284;19.310;2023-05-27T06:13:19;7.07;;;3.53;;
17818;SDS011;9034;50.284;19.310;2023-05-27T06:14:23;11.27;;;3.80;;
17818;SDS011;9034;50.284;19.310;2023-05-27T06:15:30;9.70;;;3.80;;
17818;SDS011;9034;50.284;19.310;2023-05-27T06:16:32;8.67;;;3.50;;
17818;SDS011;9034;50.284;19.310;2023-05-27T06:17:37;9.33;;;3.53;;
17818;SDS011;9034;50.284;19.310;2023-05-27T06:18:40;8.70;;;3.40;;
17818;SDS011;9034;50.284;19.310;2023-05-27T06:19:47;6.10;;;3.47;;
17818;SDS011;9034;50.284;19.310;2023-05-27T06:20:49;7.53;;;2.80;;
17818;SDS011;9034;50.284;19.310;2023-05-27T06:21:56;8.00;;;3.13;;